createdAt,value
2022-08-11T00:00:36.577Z,101392.41
2022-08-11T00:03:46.050Z,101390.50
2022-08-11T00:06:49.142Z,101380.34
2022-08-11T00:09:53.017Z,101383.09
2022-08-11T00:13:00.761Z,101375.09
2022-08-11T00:16:10.966Z,101377.63
2022-08-11T00:19:20.332Z,101374.88
2022-08-11T00:22:45.732Z,101363.75
2022-08-11T00:25:52.197Z,101377.63
2022-08-11T00:28:56.865Z,101382.25
2022-08-11T00:32:03.139Z,101384.16
2022-08-11T00:35:54.361Z,101378.06
2022-08-11T00:38:33.274Z,101382.72
2022-08-11T00:42:24.911Z,101381.03
2022-08-11T00:45:35.630Z,101381.88
2022-08-11T00:48:58.149Z,101379.13
2022-08-11T00:52:21.182Z,101384.84
2022-08-11T00:55:54.570Z,101388.44
2022-08-11T00:59:35.555Z,101395.00
2022-08-11T01:02:58.286Z,101391.38
2022-08-11T01:06:21.417Z,101394.13
2022-08-11T01:09:45.510Z,101391.38
2022-08-11T01:13:18.841Z,101394.13
2022-08-11T01:16:50.225Z,101391.38
2022-08-11T01:20:45.452Z,101377.47
2022-08-11T01:23:58.154Z,101377.69
2022-08-11T01:27:34.055Z,101374.94
2022-08-11T01:30:54.461Z,101376.25
2022-08-11T01:34:21.070Z,101379.00
2022-08-11T01:37:23.138Z,101383.03
2022-08-11T01:40:53.067Z,101368.94
2022-08-11T01:44:31.244Z,101365.94
2022-08-11T01:47:53.405Z,101368.69
2022-08-11T01:51:17.505Z,101359.63
2022-08-11T01:54:27.439Z,101365.94
2022-08-11T01:57:35.468Z,101363.19
2022-08-11T02:00:54.509Z,101365.94
2022-08-11T02:04:18.465Z,101370.38
2022-08-11T02:08:18.995Z,101369.56
2022-08-11T02:11:34.469Z,101377.84
2022-08-11T02:15:05.388Z,101378.66
2022-08-11T02:18:54.755Z,101381.19
2022-08-11T02:22:25.665Z,101382.25
2022-08-11T02:25:38.374Z,101374.25
2022-08-11T02:28:45.085Z,101384.59
2022-08-11T02:32:31.141Z,101383.81
2022-08-11T02:36:00.970Z,101386.97
2022-08-11T02:39:11.415Z,101389.72
2022-08-11T02:42:36.130Z,101394.06
2022-08-11T02:45:54.845Z,101388.75
2022-08-11T02:49:24.236Z,101391.88
2022-08-11T02:52:32.131Z,101394.63
2022-08-11T02:56:08.925Z,101398.22
2022-08-11T02:59:53.045Z,101399.22
2022-08-11T03:03:18.797Z,101399.84
2022-08-11T03:06:38.907Z,101390.88
2022-08-11T03:09:49.644Z,101387.97
2022-08-11T03:13:16.337Z,101395.41
2022-08-11T03:16:47.119Z,101398.78
2022-08-11T03:20:10.857Z,101397.69
2022-08-11T03:23:31.429Z,101391.81
2022-08-11T03:26:47.383Z,101397.84
2022-08-11T03:30:04.835Z,101401.56
2022-08-11T03:33:47.330Z,101402.59
2022-08-11T03:37:15.388Z,101392.91
2022-08-11T03:40:44.296Z,101398.34
2022-08-11T03:43:58.381Z,101407.34
2022-08-11T03:47:09.756Z,101400.56
2022-08-11T03:50:45.621Z,101408.59
2022-08-11T03:54:18.801Z,101410.38
2022-08-11T03:57:50.214Z,101406.69
2022-08-11T04:01:20.280Z,101401.00
2022-08-11T04:05:00.056Z,101399.94
2022-08-11T04:08:15.978Z,101390.66
2022-08-11T04:11:41.361Z,101401.28
2022-08-11T04:15:20.603Z,101400.63
2022-08-11T04:19:01.068Z,101393.25
2022-08-11T04:22:18.106Z,101402.75
2022-08-11T04:26:16.102Z,101400.84
2022-08-11T04:30:03.914Z,101391.72
2022-08-11T04:33:09.595Z,101391.44
2022-08-11T04:36:58.190Z,101394.69
2022-08-11T04:40:30.636Z,101387.53
2022-08-11T04:44:06.407Z,101385.22
2022-08-11T04:48:03.321Z,101384.63
2022-08-11T04:51:45.041Z,101373.81
2022-08-11T04:55:33.679Z,101379.16
2022-08-11T04:59:01.041Z,101376.13
2022-08-11T05:02:17.545Z,101363.81
2022-08-11T05:05:56.873Z,101373.00
2022-08-11T05:09:13.006Z,101376.06
2022-08-11T05:12:51.876Z,101370.13
2022-08-11T05:16:14.872Z,101375.72
2022-08-11T05:19:39.662Z,101373.00
2022-08-11T05:23:10.596Z,101367.31
2022-08-11T05:26:45.981Z,101384.50
2022-08-11T05:30:21.631Z,101375.16
2022-08-11T05:33:55.128Z,101372.25
2022-08-11T05:37:26.647Z,101369.88
2022-08-11T05:40:51.163Z,101375.53
2022-08-11T05:44:19.932Z,101371.72
2022-08-11T05:47:46.332Z,101372.56
2022-08-11T05:51:11.768Z,101375.28
2022-08-11T05:54:37.661Z,101379.16
2022-08-11T05:57:50.818Z,101369.38
2022-08-11T06:00:54.240Z,101369.81
2022-08-11T06:04:16.965Z,101372.56
2022-08-11T06:07:27.027Z,101363.00
2022-08-11T06:10:34.612Z,101362.81
2022-08-11T06:13:44.904Z,101353.31
2022-08-11T06:16:53.503Z,101351.03
2022-08-11T06:20:06.795Z,101347.91
2022-08-11T06:23:11.423Z,101345.69
2022-08-11T06:26:15.008Z,101344.50
2022-08-11T06:29:18.687Z,101333.78
2022-08-11T06:32:25.582Z,101339.94
2022-08-11T06:35:48.430Z,101341.66
2022-08-11T06:39:11.906Z,101331.50
2022-08-11T06:42:33.018Z,101330.94
2022-08-11T06:45:42.189Z,101334.53
2022-08-11T06:48:45.458Z,101320.09
2022-08-11T06:51:48.459Z,101329.06
2022-08-11T06:55:05.640Z,101325.06
2022-08-11T06:58:35.050Z,101325.56
2022-08-11T07:01:49.398Z,101324.47
2022-08-11T07:04:54.546Z,101323.44
2022-08-11T07:09:04.329Z,101323.38
2022-08-11T07:13:06.179Z,101341.38
2022-08-11T07:16:14.032Z,101325.41
2022-08-11T07:19:40.771Z,101329.19
2022-08-11T07:23:11.630Z,101328.75
2022-08-11T07:26:32.392Z,101322.31
2022-08-11T07:29:36.889Z,101321.22
2022-08-11T07:32:50.341Z,101324.53
2022-08-11T07:35:56.929Z,101319.31
2022-08-11T07:39:00.504Z,101320.09
2022-08-11T07:42:09.119Z,101325.19
2022-08-11T07:45:30.843Z,101324.34
2022-08-11T07:48:53.323Z,101324.34
2022-08-11T07:52:14.548Z,101328.56
2022-08-11T07:55:19.718Z,101325.06
2022-08-11T07:58:45.174Z,101325.06
2022-08-11T08:02:10.727Z,101333.03
2022-08-11T08:05:33.171Z,101323.16
2022-08-11T08:08:56.000Z,101331.31
2022-08-11T08:12:19.365Z,101326.34
2022-08-11T08:15:41.144Z,101321.25
2022-08-11T08:18:44.470Z,101313.19
2022-08-11T08:21:48.631Z,101319.06
2022-08-11T08:24:52.174Z,101316.31
2022-08-11T08:27:56.574Z,101302.72
2022-08-11T08:30:59.059Z,101303.56
2022-08-11T08:34:01.560Z,101304.66
2022-08-11T08:37:15.846Z,101298.47
2022-08-11T08:40:28.349Z,101299.91
2022-08-11T08:43:48.446Z,101297.25
2022-08-11T08:46:56.599Z,101305.41
2022-08-11T08:50:05.683Z,101309.63
2022-08-11T08:53:08.882Z,101308.78
2022-08-11T08:56:11.919Z,101291.19
2022-08-11T08:59:15.957Z,101305.47
2022-08-11T09:02:33.607Z,101296.41
2022-08-11T09:05:37.612Z,101291.06
2022-08-11T09:08:41.005Z,101271.50
2022-08-11T09:11:50.872Z,101286.97
2022-08-11T09:15:06.386Z,101285.81
2022-08-11T09:18:11.143Z,101272.06
2022-08-11T09:21:15.603Z,101282.97
2022-08-11T09:24:57.975Z,101270.78
2022-08-11T09:28:01.561Z,101266.63
2022-08-11T09:31:06.273Z,101263.78
2022-08-11T09:34:13.991Z,101261.00
2022-08-11T09:37:55.452Z,101265.00
2022-08-11T09:40:58.377Z,101269.00
2022-08-11T09:44:20.452Z,101247.88
2022-08-11T09:47:28.635Z,101260.06
2022-08-11T09:50:32.995Z,101262.72
2022-08-11T09:53:41.235Z,101267.38
2022-08-11T09:57:05.288Z,101261.72
2022-08-11T10:00:12.306Z,101265.94
2022-08-11T10:03:22.161Z,101262.72
2022-08-11T10:06:44.434Z,101254.38
2022-08-11T10:09:59.075Z,101249.47
2022-08-11T10:14:03.836Z,101249.63
2022-08-11T10:16:30.894Z,101269.06
2022-08-11T10:19:36.300Z,101271.06
2022-08-11T10:22:59.151Z,101265.81
2022-08-11T10:26:22.084Z,101245.53
2022-08-11T10:29:57.966Z,101246.44
2022-08-11T10:33:37.526Z,101259.94
2022-08-11T10:36:50.801Z,101259.94
2022-08-11T10:39:56.472Z,101259.66
2022-08-11T10:43:07.149Z,101253.25
2022-08-11T10:46:30.332Z,101261.72
2022-08-11T10:49:33.435Z,101244.25
2022-08-11T10:52:56.185Z,101245.00
2022-08-11T10:56:18.314Z,101245.25
2022-08-11T10:59:21.181Z,101232.94
2022-08-11T11:02:24.322Z,101235.25
2022-08-11T11:05:31.572Z,101221.97
2022-08-11T11:09:00.200Z,101243.97
2022-08-11T11:12:43.809Z,101232.00
2022-08-11T11:16:06.643Z,101224.63
2022-08-11T11:19:11.371Z,101230.94
2022-08-11T11:22:34.565Z,101224.25
2022-08-11T11:26:14.903Z,101208.00
2022-08-11T11:29:53.158Z,101215.53
2022-08-11T11:33:11.205Z,101220.06
2022-08-11T11:36:32.810Z,101216.00
2022-08-11T11:39:36.855Z,101218.03
2022-08-11T11:42:41.643Z,101209.44
2022-08-11T11:45:44.568Z,101211.00
2022-08-11T11:48:47.737Z,101203.59
2022-08-11T11:51:55.261Z,101212.66
2022-08-11T11:54:59.868Z,101204.78
2022-08-11T11:58:22.409Z,101194.84
2022-08-11T12:01:25.807Z,101192.22
2022-08-11T12:04:29.120Z,101195.22
2022-08-11T12:08:04.944Z,101200.34
2022-08-11T12:11:31.944Z,101193.53
2022-08-11T12:14:34.338Z,101209.88
2022-08-11T12:17:36.765Z,101185.03
2022-08-11T12:20:39.651Z,101198.31
2022-08-11T12:24:04.463Z,101185.41
2022-08-11T12:27:25.054Z,101185.28
2022-08-11T12:30:28.278Z,101182.63
2022-08-11T12:33:30.459Z,101182.63
2022-08-11T12:36:36.995Z,101171.16
2022-08-11T12:40:16.022Z,101166.84
2022-08-11T12:43:57.185Z,101163.59
2022-08-11T12:47:03.547Z,101165.63
2022-08-11T12:50:24.968Z,101163.56
2022-08-11T12:53:29.906Z,101162.47
2022-08-11T12:56:59.951Z,101157.56
2022-08-11T13:00:21.619Z,101165.41
2022-08-11T13:03:43.440Z,101152.53
2022-08-11T13:06:55.840Z,101158.03
2022-08-11T13:10:02.765Z,101164.94
2022-08-11T13:13:55.226Z,101167.13
2022-08-11T13:16:32.560Z,101162.59
2022-08-11T13:19:35.677Z,101168.84
2022-08-11T13:22:38.821Z,101170.00
2022-08-11T13:25:41.749Z,101162.47
2022-08-11T13:28:46.264Z,101149.72
2022-08-11T13:31:50.693Z,101150.06
2022-08-11T13:34:53.330Z,101157.50
2022-08-11T13:38:27.022Z,101150.06
2022-08-11T13:41:41.865Z,101148.97
2022-08-11T13:44:44.437Z,101149.31
2022-08-11T13:47:46.939Z,101139.91
2022-08-11T13:51:07.805Z,101127.13
2022-08-11T13:54:12.268Z,101139.41
2022-08-11T13:58:08.583Z,101132.34
2022-08-11T14:00:38.799Z,101129.31
2022-08-11T14:04:29.026Z,101140.19
2022-08-11T14:07:22.851Z,101125.25
2022-08-11T14:10:29.072Z,101126.34
2022-08-11T14:13:42.582Z,101134.00
2022-08-11T14:16:54.198Z,101124.34
2022-08-11T14:19:57.831Z,101120.72
2022-08-11T14:23:00.433Z,101127.31
2022-08-11T14:26:21.646Z,101123.97
2022-08-11T14:29:27.882Z,101115.00
2022-08-11T14:32:30.397Z,101131.72
2022-08-11T14:35:33.746Z,101115.50
2022-08-11T14:38:38.381Z,101110.66
2022-08-11T14:42:11.715Z,101118.94
2022-08-11T14:45:58.166Z,101109.34
2022-08-11T14:49:00.255Z,101100.84
2022-08-11T14:52:07.995Z,101121.88
2022-08-11T14:55:29.662Z,101108.69
2022-08-11T14:58:34.000Z,101089.63
2022-08-11T15:01:54.728Z,101106.28
2022-08-11T15:05:00.044Z,101110.38
2022-08-11T15:08:02.537Z,101111.34
2022-08-11T15:11:24.806Z,101101.94
2022-08-11T15:14:45.408Z,101096.59
2022-08-11T15:17:49.390Z,101096.25
2022-08-11T15:21:10.334Z,101094.09
2022-08-11T15:24:21.787Z,101091.34
2022-08-11T15:27:44.007Z,101084.63
2022-08-11T15:31:11.649Z,101077.06
2022-08-11T15:34:35.780Z,101077.06
2022-08-11T15:37:40.567Z,101083.97
2022-08-11T15:41:01.658Z,101074.19
2022-08-11T15:44:51.444Z,101062.84
2022-08-11T15:48:05.520Z,101071.09
2022-08-11T15:51:25.058Z,101074.69
2022-08-11T15:54:31.340Z,101072.41
2022-08-11T15:57:53.387Z,101073.28
2022-08-11T16:01:15.422Z,101074.50
2022-08-11T16:04:21.034Z,101072.25
2022-08-11T16:07:34.257Z,101069.97
2022-08-11T16:10:44.880Z,101076.78
2022-08-11T16:14:08.602Z,101060.81
2022-08-11T16:17:15.392Z,101078.22
2022-08-11T16:20:21.423Z,101085.06
2022-08-11T16:23:28.343Z,101084.72
2022-08-11T16:27:07.585Z,101089.38
2022-08-11T16:30:00.495Z,101087.94
2022-08-11T16:33:48.410Z,101097.28
2022-08-11T16:36:49.309Z,101093.09
2022-08-11T16:39:51.536Z,101091.66
2022-08-11T16:43:13.776Z,101098.81
2022-08-11T16:46:37.383Z,101102.41
2022-08-11T16:49:50.612Z,101100.97
2022-08-11T16:52:55.009Z,101106.69
2022-08-11T16:56:03.257Z,101076.44
2022-08-11T16:59:15.225Z,101101.38
2022-08-11T17:02:38.405Z,101108.75
2022-08-11T17:06:07.721Z,101112.84
2022-08-11T17:09:31.591Z,101116.28
2022-08-11T17:12:53.895Z,101114.41
2022-08-11T17:16:07.389Z,101111.78
2022-08-11T17:19:17.265Z,101118.56
2022-08-11T17:22:41.929Z,101110.81
2022-08-11T17:25:59.608Z,101120.72
2022-08-11T17:29:10.743Z,101130.03
2022-08-11T17:32:56.222Z,101134.94
2022-08-11T17:36:03.443Z,101135.06
2022-08-11T17:39:06.116Z,101143.75
2022-08-11T17:42:28.409Z,101144.56
2022-08-11T17:45:49.512Z,101144.22
2022-08-11T17:48:51.988Z,101150.28
2022-08-11T17:52:16.594Z,101142.41
2022-08-11T17:55:52.104Z,101169.66
2022-08-11T17:59:15.869Z,101168.78
2022-08-11T18:02:43.873Z,101161.06
2022-08-11T18:05:49.930Z,101171.78
2022-08-11T18:09:12.183Z,101181.31
2022-08-11T18:12:33.126Z,101191.47
2022-08-11T18:15:56.485Z,101196.13
2022-08-11T18:19:17.937Z,101191.56
2022-08-11T18:22:53.686Z,101208.66
2022-08-11T18:26:20.049Z,101207.47
2022-08-11T18:29:42.311Z,101208.50
2022-08-11T18:36:52.794Z,101215.69
2022-08-11T18:40:35.019Z,101221.03
2022-08-11T18:44:01.221Z,101216.88
2022-08-11T18:47:30.726Z,101208.38
2022-08-11T18:51:00.654Z,101231.88
2022-08-11T18:54:38.426Z,101226.59
2022-08-11T18:58:00.686Z,101247.25
2022-08-11T19:01:25.577Z,101245.41
2022-08-11T19:04:47.898Z,101247.94
2022-08-11T19:08:10.795Z,101255.94
2022-08-11T19:11:32.498Z,101253.91
2022-08-11T19:14:54.224Z,101239.19
2022-08-11T19:18:16.032Z,101251.97
2022-08-11T19:21:37.281Z,101258.19
2022-08-11T19:25:00.143Z,101268.28
2022-08-11T19:28:25.933Z,101269.91
2022-08-11T19:31:47.419Z,101260.38
2022-08-11T19:35:09.258Z,101266.13
2022-08-11T19:38:30.538Z,101273.53
2022-08-11T19:41:57.562Z,101275.78
2022-08-11T19:45:21.503Z,101276.06
2022-08-11T19:48:45.735Z,101280.72
2022-08-11T19:52:08.018Z,101278.63
2022-08-11T19:55:29.370Z,101279.69
2022-08-11T19:58:50.839Z,101261.16
2022-08-11T20:02:14.076Z,101277.56
2022-08-11T20:05:35.287Z,101273.19
2022-08-11T20:09:00.424Z,101286.06
2022-08-11T20:12:23.203Z,101281.63
2022-08-11T20:15:46.599Z,101281.63
2022-08-11T20:19:11.133Z,101283.25
2022-08-11T20:22:34.845Z,101292.75
2022-08-11T20:26:08.498Z,101285.44
2022-08-11T20:29:38.108Z,101275.94
2022-08-11T20:33:06.652Z,101274.81
2022-08-11T20:36:28.898Z,101275.63
2022-08-11T20:39:51.753Z,101276.47
2022-08-11T20:43:16.730Z,101270.97
2022-08-11T20:46:59.020Z,101267.00
2022-08-11T20:50:21.457Z,101270.78
2022-08-11T20:53:45.405Z,101271.81
2022-08-11T20:57:11.330Z,101272.66
2022-08-11T21:00:39.157Z,101273.72
2022-08-11T21:04:00.782Z,101270.06
2022-08-11T21:07:39.371Z,101272.56
2022-08-11T21:11:05.942Z,101264.78
2022-08-11T21:14:31.091Z,101263.25
2022-08-11T21:18:00.813Z,101268.63
2022-08-11T21:21:30.182Z,101256.72
2022-08-11T21:25:07.006Z,101234.50
2022-08-11T21:28:29.775Z,101254.78
2022-08-11T21:31:52.664Z,101259.44
2022-08-11T21:35:15.280Z,101247.97
2022-08-11T21:38:36.480Z,101274.41
2022-08-11T21:41:58.587Z,101265.88
2022-08-11T21:45:20.919Z,101274.22
2022-08-11T21:48:44.674Z,101276.53
2022-08-11T21:52:05.863Z,101266.16
2022-08-11T21:55:27.999Z,101262.59
2022-08-11T21:58:50.865Z,101266.16
2022-08-11T22:02:13.017Z,101249.72
2022-08-11T22:05:36.028Z,101260.69
2022-08-11T22:08:56.727Z,101267.25
2022-08-11T22:12:34.352Z,101275.88
2022-08-11T22:15:57.664Z,101278.38
2022-08-11T22:19:19.976Z,101266.16
2022-08-11T22:22:52.315Z,101272.91
2022-08-11T22:26:14.142Z,101275.03
2022-08-11T22:29:50.618Z,101263.63
2022-08-11T22:33:15.011Z,101259.47
2022-08-11T22:36:37.096Z,101267.91
2022-08-11T22:40:02.122Z,101270.19
2022-08-11T22:43:24.860Z,101273.41
2022-08-11T22:46:47.272Z,101269.25
2022-08-11T22:50:14.158Z,101261.69
2022-08-11T22:53:58.455Z,101270.75
2022-08-11T22:57:18.239Z,101263.59
2022-08-11T23:00:39.031Z,101268.69
2022-08-11T23:03:59.793Z,101263.28
2022-08-11T23:07:49.917Z,101259.34
2022-08-11T23:11:02.515Z,101247.47
2022-08-11T23:14:23.354Z,101253.84
2022-08-11T23:17:45.742Z,101252.41
2022-08-11T23:21:06.671Z,101255.38
2022-08-11T23:24:29.101Z,101262.00
2022-08-11T23:27:53.562Z,101250.19
2022-08-11T23:31:18.172Z,101253.06
2022-08-11T23:35:37.246Z,101245.78
2022-08-11T23:38:28.734Z,101269.44
2022-08-11T23:41:49.867Z,101275.75
2022-08-11T23:45:10.556Z,101281.50
2022-08-11T23:48:35.341Z,101276.00
2022-08-11T23:51:58.939Z,101279.22
2022-08-11T23:55:20.294Z,101261.09
2022-08-11T23:58:40.908Z,101264.97
